Airfield :
LOGIN :

Register | Disclaimer

   EN    FR    IT 

 










Legend :    VFR   Marginal VFR   IFR   Intensive IFR   Very Intensive IFR
Visi :
Ceiling :
>= 8 km
>= 3000ft
5 to 8 km
1000 to 3000 ft
1500m to 5 km
500 to 1000 ft
800 to 1500m
200 to 500 ft
< 800m
< 200 ft
Symbols :   Thunderstorms  Fog  Heavy snow  Heavy precipitations  Wind > 20 kt
SIGMETs :     Misc.  Thunderstorms  Icing  Turbulence  Mountain Waves  Volcanic Ashes







- Airport Elevation : 56 ft
- IATA code : ILY
- Download approach charts


EGPI - Islay

CURRENT METAR :
  • 180720Z 12007KT 9999 FEW008 SCT027 BKN040 10/09 Q1012

EXPIRED METARs :
  • 180650Z AUTO 12008KT 9999 FEW012/// BKN039/// 10/09 Q1012 RERA
  • 180620Z AUTO 11008KT 9999 -RA FEW011/// SCT041/// 10/09 Q1012
  • 180550Z AUTO 11006KT 9999 FEW043/// 08/08 Q1012
  • 180520Z AUTO 10006KT 9999 FEW045/// 08/08 Q1012
  • 180450Z AUTO 14006KT 100V190 9999 SCT045/// 07/06 Q1012
  • 180420Z AUTO 10008KT 9999 NCD 07/06 Q1012

TAF TAF EGPI
Valid from the 18 at 06:00 until the 18 at 15:00 UTC


180456Z 1806/1815 13008KT 9999 BKN022
TEMPO 1806/1812 8000 -RA BKN008
No reported NOTAMs for that airfield.



MET'MAP, your aeronautical weather chart ! - Copyright ORBIFLY December 2007 - Disclaimer

ORBIFLY MET'MAP TEAM :

Programming & Development : Alexandra Zaïnal
Concept & Development : Baudouin d'Aumeries
Co-Development & Prog : Marc-Olivier Méhu
Technical & hardware support : Manuel Goepfert

Contact : metmap@orbifly.com




SOURCES & CREDITS :

   NOAA